AAL401 TGPY-TNCC
Flight info
| Callsign | AAL401 |
|---|---|
| Flight time | 1h 9m |
| Altitude | 32000 |
| Route | KAPAM DCT VAMEL DCT PJB DCT D114K |
| Aircraft | MD88/M-SDFGIRWY/C |
Departure
| Time | 2026-05-05 23:27 |
|---|---|
| Airport | Maurice Bishop International Airport (TGPY) |
Arrival
| Time | 2026-05-06 00:36 |
|---|---|
| Airport | Hato International Airport (TNCC) |
| Time | Latitude | Longitude | Altitude | Speed | Heading |
|---|---|---|---|---|---|
| 2026-05-05 23:07 | 12.00644 | -61.78495 | 44 ft | 0 kts | 360° |
| 2026-05-05 23:15 | 12.00640 | -61.78495 | 44 ft | 1 kts | 0° |
| 2026-05-05 23:15 | 12.00631 | -61.78495 | 43 ft | 2 kts | 356° |
| 2026-05-05 23:15 | 12.00616 | -61.78491 | 43 ft | 2 kts | 334° |
| 2026-05-05 23:15 | 12.00603 | -61.78482 | 42 ft | 2 kts | 318° |
| 2026-05-05 23:16 | 12.00593 | -61.78470 | 42 ft | 2 kts | 301° |
| 2026-05-05 23:16 | 12.00587 | -61.78456 | 41 ft | 2 kts | 284° |
| 2026-05-05 23:16 | 12.00586 | -61.78443 | 41 ft | 0 kts | 270° |
| 2026-05-05 23:16 | 12.00586 | -61.78436 | 40 ft | 0 kts | 267° |
| 2026-05-05 23:20 | 12.00586 | -61.78452 | 41 ft | 5 kts | 271° |
| 2026-05-05 23:20 | 12.00586 | -61.78485 | 42 ft | 2 kts | 270° |
| 2026-05-05 23:21 | 12.00586 | -61.78501 | 43 ft | 3 kts | 270° |
| 2026-05-05 23:21 | 12.00578 | -61.78567 | 47 ft | 9 kts | 241° |
| 2026-05-05 23:21 | 12.00529 | -61.78596 | 46 ft | 8 kts | 181° |
| 2026-05-05 23:21 | 12.00504 | -61.78595 | 45 ft | 0 kts | 180° |
| 2026-05-05 23:23 | 12.00503 | -61.78595 | 45 ft | 2 kts | 180° |
| 2026-05-05 23:23 | 12.00450 | -61.78597 | 43 ft | 10 kts | 186° |
| 2026-05-05 23:23 | 12.00410 | -61.78646 | 43 ft | 11 kts | 269° |
| 2026-05-05 23:23 | 12.00409 | -61.78748 | 44 ft | 16 kts | 270° |
| 2026-05-05 23:24 | 12.00410 | -61.78881 | 46 ft | 19 kts | 271° |
| 2026-05-05 23:24 | 12.00411 | -61.79004 | 47 ft | 15 kts | 270° |
| 2026-05-05 23:24 | 12.00410 | -61.79121 | 45 ft | 17 kts | 269° |
| 2026-05-05 23:24 | 12.00410 | -61.79265 | 42 ft | 22 kts | 270° |
| 2026-05-05 23:25 | 12.00410 | -61.79441 | 38 ft | 24 kts | 270° |
| 2026-05-05 23:25 | 12.00411 | -61.79617 | 35 ft | 24 kts | 271° |
| 2026-05-05 23:25 | 12.00426 | -61.79785 | 31 ft | 22 kts | 289° |
| 2026-05-05 23:25 | 12.00420 | -61.79839 | 31 ft | 3 kts | 158° |
| 2026-05-05 23:26 | 12.00411 | -61.79808 | 31 ft | 15 kts | 89° |
| 2026-05-05 23:26 | 12.00410 | -61.79467 | 38 ft | 78 kts | 91° |
| 2026-05-05 23:26 | 12.00404 | -61.78705 | 44 ft | 130 kts | 91° |
| 2026-05-05 23:26 | 12.00418 | -61.77715 | 424 ft | 141 kts | 88° |
| 2026-05-05 23:27 | 12.00276 | -61.76772 | 1026 ft | 137 kts | 108° |
| 2026-05-05 23:27 | 11.99815 | -61.75789 | 1040 ft | 177 kts | 114° |
| 2026-05-05 23:27 | 11.99198 | -61.74537 | 1069 ft | 211 kts | 114° |
| 2026-05-05 23:27 | 11.98493 | -61.73091 | 1071 ft | 242 kts | 114° |
| 2026-05-05 23:28 | 11.97698 | -61.71441 | 1437 ft | 260 kts | 114° |
| 2026-05-05 23:28 | 11.96816 | -61.69987 | 2784 ft | 243 kts | 132° |
| 2026-05-05 23:28 | 11.95288 | -61.69105 | 3384 ft | 262 kts | 162° |
| 2026-05-05 23:28 | 11.93439 | -61.69108 | 4170 ft | 274 kts | 190° |
| 2026-05-05 23:29 | 11.91716 | -61.70021 | 4890 ft | 285 kts | 219° |
| 2026-05-05 23:29 | 11.90556 | -61.71664 | 5635 ft | 291 kts | 246° |
| 2026-05-05 23:29 | 11.90214 | -61.73705 | 6376 ft | 296 kts | 274° |
| 2026-05-05 23:29 | 11.90744 | -61.75734 | 7060 ft | 299 kts | 292° |
| 2026-05-05 23:30 | 11.91507 | -61.77718 | 7736 ft | 303 kts | 293° |
| 2026-05-05 23:30 | 11.92034 | -61.79050 | 8170 ft | 306 kts | 292° |
| 2026-05-05 23:30 | 11.93145 | -61.81725 | 9064 ft | 310 kts | 295° |
| 2026-05-05 23:30 | 11.94026 | -61.83746 | 9731 ft | 313 kts | 296° |
| 2026-05-05 23:31 | 11.94952 | -61.85778 | 10260 ft | 320 kts | 297° |
| 2026-05-05 23:31 | 11.95943 | -61.87922 | 10301 ft | 346 kts | 297° |
| 2026-05-05 23:31 | 11.97097 | -61.90166 | 10472 ft | 365 kts | 302° |
| 2026-05-05 23:31 | 11.98462 | -61.92407 | 11138 ft | 365 kts | 306° |
| 2026-05-05 23:32 | 11.99905 | -61.94576 | 11651 ft | 370 kts | 305° |
| 2026-05-05 23:32 | 12.01026 | -61.96965 | 12207 ft | 377 kts | 290° |
| 2026-05-05 23:32 | 12.01588 | -61.99607 | 12786 ft | 383 kts | 276° |
| 2026-05-05 23:32 | 12.01530 | -62.02348 | 13262 ft | 389 kts | 266° |
| 2026-05-05 23:33 | 12.01393 | -62.05115 | 13933 ft | 387 kts | 268° |
| 2026-05-05 23:33 | 12.01302 | -62.07860 | 14526 ft | 388 kts | 269° |
| 2026-05-05 23:33 | 12.01248 | -62.10621 | 15154 ft | 387 kts | 270° |
| 2026-05-05 23:33 | 12.01224 | -62.13385 | 15717 ft | 388 kts | 271° |
| 2026-05-05 23:34 | 12.01222 | -62.16191 | 16322 ft | 387 kts | 271° |
| 2026-05-05 23:34 | 12.01237 | -62.18941 | 16859 ft | 388 kts | 272° |
| 2026-05-05 23:34 | 12.01266 | -62.21707 | 17372 ft | 389 kts | 272° |
| 2026-05-05 23:34 | 12.01306 | -62.24503 | 17908 ft | 389 kts | 272° |
| 2026-05-05 23:35 | 12.01354 | -62.27293 | 18338 ft | 392 kts | 272° |
| 2026-05-05 23:35 | 12.01408 | -62.30076 | 18807 ft | 393 kts | 272° |
| 2026-05-05 23:35 | 12.01464 | -62.32869 | 19213 ft | 395 kts | 272° |
| 2026-05-05 23:35 | 12.01526 | -62.35677 | 19645 ft | 397 kts | 272° |
| 2026-05-05 23:36 | 12.01590 | -62.38500 | 20027 ft | 399 kts | 272° |
| 2026-05-05 23:36 | 12.01657 | -62.41336 | 20419 ft | 401 kts | 272° |
| 2026-05-05 23:36 | 12.01725 | -62.44193 | 20782 ft | 403 kts | 272° |
| 2026-05-05 23:36 | 12.01795 | -62.47050 | 21172 ft | 404 kts | 272° |
| 2026-05-05 23:37 | 12.01867 | -62.49926 | 21521 ft | 406 kts | 271° |
| 2026-05-05 23:37 | 12.01939 | -62.52808 | 21883 ft | 407 kts | 271° |
| 2026-05-05 23:37 | 12.02013 | -62.55702 | 22236 ft | 408 kts | 271° |
| 2026-05-05 23:37 | 12.02087 | -62.58627 | 22519 ft | 410 kts | 271° |
| 2026-05-05 23:38 | 12.02162 | -62.61549 | 22823 ft | 412 kts | 271° |
| 2026-05-05 23:38 | 12.02238 | -62.64490 | 23089 ft | 415 kts | 271° |
| 2026-05-05 23:38 | 12.02315 | -62.67451 | 23353 ft | 418 kts | 271° |
| 2026-05-05 23:38 | 12.02393 | -62.70426 | 23629 ft | 420 kts | 271° |
| 2026-05-05 23:39 | 12.02472 | -62.73417 | 23891 ft | 422 kts | 271° |
| 2026-05-05 23:39 | 12.02551 | -62.76414 | 24186 ft | 424 kts | 271° |
| 2026-05-05 23:39 | 12.02631 | -62.79432 | 24429 ft | 426 kts | 271° |
| 2026-05-05 23:39 | 12.02713 | -62.82468 | 24688 ft | 428 kts | 272° |
| 2026-05-05 23:40 | 12.02794 | -62.85503 | 24958 ft | 429 kts | 272° |
| 2026-05-05 23:40 | 12.02868 | -62.88562 | 25170 ft | 432 kts | 271° |
| 2026-05-05 23:40 | 12.02939 | -62.91623 | 25437 ft | 433 kts | 271° |
| 2026-05-05 23:40 | 12.03009 | -62.94707 | 25633 ft | 435 kts | 271° |
| 2026-05-05 23:41 | 12.03077 | -62.97803 | 25867 ft | 437 kts | 271° |
| 2026-05-05 23:41 | 12.03146 | -63.00905 | 26077 ft | 439 kts | 271° |
| 2026-05-05 23:41 | 12.03215 | -63.04030 | 26281 ft | 440 kts | 272° |
| 2026-05-05 23:41 | 12.03285 | -63.07165 | 26502 ft | 441 kts | 272° |
| 2026-05-05 23:42 | 12.03355 | -63.10296 | 26707 ft | 443 kts | 271° |
| 2026-05-05 23:42 | 12.03424 | -63.13439 | 26969 ft | 442 kts | 271° |
| 2026-05-05 23:42 | 12.03494 | -63.16578 | 27235 ft | 442 kts | 271° |
| 2026-05-05 23:42 | 12.03563 | -63.19711 | 27482 ft | 442 kts | 272° |
| 2026-05-05 23:43 | 12.03633 | -63.22853 | 27702 ft | 442 kts | 272° |
| 2026-05-05 23:43 | 12.03703 | -63.25985 | 27941 ft | 442 kts | 272° |
| 2026-05-05 23:43 | 12.03773 | -63.29119 | 28152 ft | 442 kts | 272° |
| 2026-05-05 23:43 | 12.03844 | -63.32261 | 28372 ft | 442 kts | 272° |
| 2026-05-05 23:44 | 12.03915 | -63.35405 | 28597 ft | 442 kts | 272° |
| 2026-05-05 23:44 | 12.03987 | -63.38549 | 28854 ft | 441 kts | 272° |
| 2026-05-05 23:44 | 12.04059 | -63.41687 | 29106 ft | 440 kts | 272° |
| 2026-05-05 23:44 | 12.04131 | -63.44817 | 29315 ft | 440 kts | 272° |
| 2026-05-05 23:45 | 12.04204 | -63.47946 | 29538 ft | 440 kts | 272° |
| 2026-05-05 23:45 | 12.04277 | -63.51059 | 29745 ft | 440 kts | 272° |
| 2026-05-05 23:45 | 12.04350 | -63.54175 | 29950 ft | 440 kts | 272° |
| 2026-05-05 23:45 | 12.04423 | -63.57298 | 30185 ft | 439 kts | 272° |
| 2026-05-05 23:46 | 12.04496 | -63.60419 | 30384 ft | 439 kts | 272° |
| 2026-05-05 23:46 | 12.04570 | -63.63536 | 30571 ft | 439 kts | 272° |
| 2026-05-05 23:46 | 12.04644 | -63.66682 | 30757 ft | 439 kts | 272° |
| 2026-05-05 23:46 | 12.04720 | -63.69846 | 30980 ft | 439 kts | 272° |
| 2026-05-05 23:47 | 12.04789 | -63.73018 | 31196 ft | 438 kts | 272° |
| 2026-05-05 23:47 | 12.04852 | -63.76133 | 31385 ft | 438 kts | 272° |
| 2026-05-05 23:47 | 12.04914 | -63.79270 | 31572 ft | 438 kts | 272° |
| 2026-05-05 23:47 | 12.04974 | -63.82386 | 31795 ft | 437 kts | 272° |
| 2026-05-05 23:48 | 12.05034 | -63.85485 | 31972 ft | 435 kts | 272° |
| 2026-05-05 23:48 | 12.05093 | -63.88589 | 31989 ft | 438 kts | 272° |
| 2026-05-05 23:48 | 12.05213 | -63.94912 | 31998 ft | 447 kts | 272° |
| 2026-05-05 23:49 | 12.05336 | -64.01337 | 31996 ft | 455 kts | 272° |
| 2026-05-05 23:49 | 12.05460 | -64.07848 | 31992 ft | 457 kts | 272° |
| 2026-05-05 23:50 | 12.05587 | -64.14298 | 31987 ft | 450 kts | 272° |
| 2026-05-05 23:50 | 12.05715 | -64.20829 | 31986 ft | 451 kts | 272° |
| 2026-05-05 23:51 | 12.05843 | -64.27282 | 31987 ft | 453 kts | 272° |
| 2026-05-05 23:51 | 12.05972 | -64.33720 | 31991 ft | 453 kts | 272° |
| 2026-05-05 23:52 | 12.06101 | -64.40140 | 31991 ft | 451 kts | 272° |
| 2026-05-05 23:52 | 12.06233 | -64.46543 | 31991 ft | 450 kts | 272° |
| 2026-05-05 23:53 | 12.06366 | -64.52932 | 31991 ft | 450 kts | 272° |
| 2026-05-05 23:53 | 12.06489 | -64.59341 | 31993 ft | 451 kts | 272° |
| 2026-05-05 23:54 | 12.06595 | -64.65752 | 32003 ft | 452 kts | 272° |
| 2026-05-05 23:54 | 12.06699 | -64.72186 | 32008 ft | 452 kts | 272° |
| 2026-05-05 23:55 | 12.06801 | -64.78588 | 32012 ft | 450 kts | 272° |
| 2026-05-05 23:55 | 12.06904 | -64.84987 | 32010 ft | 449 kts | 272° |
| 2026-05-05 23:56 | 12.07008 | -64.91374 | 32008 ft | 450 kts | 272° |
| 2026-05-05 23:56 | 12.07113 | -64.97793 | 32008 ft | 450 kts | 272° |
| 2026-05-05 23:57 | 12.07218 | -65.04180 | 32008 ft | 449 kts | 272° |
| 2026-05-05 23:57 | 12.07325 | -65.10566 | 32012 ft | 449 kts | 272° |
| 2026-05-05 23:58 | 12.07433 | -65.16940 | 32007 ft | 449 kts | 272° |
| 2026-05-05 23:58 | 12.07542 | -65.23304 | 32005 ft | 448 kts | 272° |
| 2026-05-05 23:59 | 12.07653 | -65.29663 | 32004 ft | 448 kts | 272° |
| 2026-05-05 23:59 | 12.07766 | -65.36035 | 32008 ft | 448 kts | 272° |
| 2026-05-06 00:00 | 12.07875 | -65.42424 | 32001 ft | 449 kts | 272° |
| 2026-05-06 00:00 | 12.07963 | -65.48799 | 32004 ft | 449 kts | 272° |
| 2026-05-06 00:01 | 12.08048 | -65.55171 | 31995 ft | 449 kts | 272° |
| 2026-05-06 00:01 | 12.08130 | -65.61542 | 31992 ft | 449 kts | 272° |
| 2026-05-06 00:02 | 12.08214 | -65.67931 | 31990 ft | 448 kts | 272° |
| 2026-05-06 00:02 | 12.08298 | -65.74275 | 31992 ft | 446 kts | 272° |
| 2026-05-06 00:03 | 12.08381 | -65.80617 | 31995 ft | 446 kts | 271° |
| 2026-05-06 00:03 | 12.08466 | -65.86982 | 31992 ft | 446 kts | 272° |
| 2026-05-06 00:04 | 12.08553 | -65.93316 | 31992 ft | 446 kts | 272° |
| 2026-05-06 00:04 | 12.08640 | -65.99660 | 31991 ft | 446 kts | 272° |
| 2026-05-06 00:05 | 12.08776 | -66.09236 | 31989 ft | 446 kts | 272° |
| 2026-05-06 00:06 | 12.08866 | -66.15564 | 31991 ft | 445 kts | 272° |
| 2026-05-06 00:06 | 12.08959 | -66.21880 | 31989 ft | 445 kts | 272° |
| 2026-05-06 00:07 | 12.09046 | -66.28200 | 31991 ft | 444 kts | 272° |
| 2026-05-06 00:07 | 12.09120 | -66.34510 | 31983 ft | 443 kts | 271° |
| 2026-05-06 00:08 | 12.09192 | -66.40797 | 31983 ft | 443 kts | 272° |
| 2026-05-06 00:08 | 12.09266 | -66.47102 | 31983 ft | 443 kts | 272° |
| 2026-05-06 00:09 | 12.09383 | -66.53373 | 31973 ft | 431 kts | 272° |
| 2026-05-06 00:09 | 12.09528 | -66.59360 | 31980 ft | 417 kts | 272° |
| 2026-05-06 00:10 | 12.09669 | -66.65316 | 31981 ft | 423 kts | 272° |
| 2026-05-06 00:10 | 12.09809 | -66.71354 | 31982 ft | 423 kts | 272° |
| 2026-05-06 00:11 | 12.09948 | -66.77358 | 31977 ft | 421 kts | 272° |
| 2026-05-06 00:11 | 12.10085 | -66.83324 | 31978 ft | 421 kts | 272° |
| 2026-05-06 00:12 | 12.10224 | -66.89314 | 31974 ft | 421 kts | 272° |
| 2026-05-06 00:12 | 12.10363 | -66.95275 | 31973 ft | 420 kts | 272° |
| 2026-05-06 00:13 | 12.10505 | -67.01255 | 31977 ft | 422 kts | 272° |
| 2026-05-06 00:13 | 12.10647 | -67.07246 | 31973 ft | 422 kts | 272° |
| 2026-05-06 00:14 | 12.10791 | -67.13226 | 31969 ft | 420 kts | 272° |
| 2026-05-06 00:14 | 12.10935 | -67.19192 | 31972 ft | 420 kts | 272° |
| 2026-05-06 00:15 | 12.11079 | -67.25146 | 31969 ft | 419 kts | 272° |
| 2026-05-06 00:15 | 12.11226 | -67.31106 | 31969 ft | 420 kts | 272° |
| 2026-05-06 00:16 | 12.11367 | -67.37070 | 31969 ft | 421 kts | 272° |
| 2026-05-06 00:16 | 12.11493 | -67.43074 | 31954 ft | 422 kts | 272° |
| 2026-05-06 00:16 | 12.11555 | -67.46121 | 31107 ft | 436 kts | 272° |
| 2026-05-06 00:17 | 12.11617 | -67.49214 | 30208 ft | 439 kts | 272° |
| 2026-05-06 00:17 | 12.11678 | -67.52327 | 29310 ft | 439 kts | 272° |
| 2026-05-06 00:17 | 12.11739 | -67.55414 | 28414 ft | 436 kts | 272° |
| 2026-05-06 00:17 | 12.11800 | -67.58495 | 27596 ft | 433 kts | 272° |
| 2026-05-06 00:18 | 12.11861 | -67.61552 | 26780 ft | 430 kts | 273° |
| 2026-05-06 00:18 | 12.11921 | -67.64574 | 25972 ft | 426 kts | 273° |
| 2026-05-06 00:18 | 12.11980 | -67.67573 | 25170 ft | 422 kts | 273° |
| 2026-05-06 00:18 | 12.12041 | -67.70544 | 24369 ft | 419 kts | 272° |
| 2026-05-06 00:19 | 12.12100 | -67.73490 | 23580 ft | 415 kts | 273° |
| 2026-05-06 00:19 | 12.12160 | -67.76411 | 22802 ft | 411 kts | 273° |
| 2026-05-06 00:19 | 12.12218 | -67.79307 | 22024 ft | 407 kts | 272° |
| 2026-05-06 00:19 | 12.12278 | -67.82173 | 21245 ft | 404 kts | 272° |
| 2026-05-06 00:20 | 12.12338 | -67.85017 | 20472 ft | 401 kts | 272° |
| 2026-05-06 00:20 | 12.12397 | -67.87837 | 19702 ft | 398 kts | 272° |
| 2026-05-06 00:20 | 12.12457 | -67.90642 | 18940 ft | 396 kts | 272° |
| 2026-05-06 00:20 | 12.12514 | -67.93431 | 18180 ft | 393 kts | 272° |
| 2026-05-06 00:21 | 12.12574 | -67.96231 | 17419 ft | 391 kts | 271° |
| 2026-05-06 00:21 | 12.12631 | -67.98992 | 16656 ft | 389 kts | 271° |
| 2026-05-06 00:21 | 12.12690 | -68.01755 | 15896 ft | 387 kts | 271° |
| 2026-05-06 00:21 | 12.12749 | -68.04502 | 15139 ft | 385 kts | 271° |
| 2026-05-06 00:22 | 12.12806 | -68.07213 | 14491 ft | 379 kts | 271° |
| 2026-05-06 00:22 | 12.12864 | -68.09884 | 14026 ft | 369 kts | 271° |
| 2026-05-06 00:22 | 12.12920 | -68.12488 | 13540 ft | 360 kts | 270° |
| 2026-05-06 00:22 | 12.12974 | -68.15035 | 13062 ft | 354 kts | 270° |
| 2026-05-06 00:23 | 12.13028 | -68.17563 | 12594 ft | 348 kts | 270° |
| 2026-05-06 00:23 | 12.13082 | -68.20064 | 12134 ft | 341 kts | 270° |
| 2026-05-06 00:23 | 12.13127 | -68.22463 | 11688 ft | 335 kts | 270° |
| 2026-05-06 00:23 | 12.13171 | -68.24823 | 11280 ft | 327 kts | 270° |
| 2026-05-06 00:24 | 12.13421 | -68.27084 | 11060 ft | 314 kts | 285° |
| 2026-05-06 00:24 | 12.13928 | -68.29210 | 10865 ft | 302 kts | 283° |
| 2026-05-06 00:24 | 12.14411 | -68.31286 | 10658 ft | 298 kts | 283° |
| 2026-05-06 00:24 | 12.14888 | -68.33361 | 10478 ft | 302 kts | 283° |
| 2026-05-06 00:25 | 12.15366 | -68.35473 | 10304 ft | 306 kts | 282° |
| 2026-05-06 00:25 | 12.15846 | -68.37605 | 10136 ft | 308 kts | 282° |
| 2026-05-06 00:25 | 12.16324 | -68.39745 | 9964 ft | 309 kts | 282° |
| 2026-05-06 00:25 | 12.16798 | -68.41877 | 9776 ft | 307 kts | 282° |
| 2026-05-06 00:26 | 12.17269 | -68.44004 | 9598 ft | 306 kts | 282° |
| 2026-05-06 00:26 | 12.17737 | -68.46121 | 9415 ft | 304 kts | 282° |
| 2026-05-06 00:26 | 12.18199 | -68.48218 | 9231 ft | 302 kts | 282° |
| 2026-05-06 00:26 | 12.18658 | -68.50313 | 9063 ft | 301 kts | 282° |
| 2026-05-06 00:27 | 12.19115 | -68.52397 | 8882 ft | 300 kts | 282° |
| 2026-05-06 00:27 | 12.19569 | -68.54476 | 8702 ft | 299 kts | 282° |
| 2026-05-06 00:27 | 12.20024 | -68.56551 | 8516 ft | 298 kts | 282° |
| 2026-05-06 00:27 | 12.20476 | -68.58618 | 8334 ft | 297 kts | 281° |
| 2026-05-06 00:28 | 12.20928 | -68.60688 | 8153 ft | 297 kts | 282° |
| 2026-05-06 00:28 | 12.21378 | -68.62743 | 7972 ft | 296 kts | 281° |
| 2026-05-06 00:28 | 12.21826 | -68.64797 | 7790 ft | 295 kts | 281° |
| 2026-05-06 00:28 | 12.22278 | -68.66863 | 7596 ft | 293 kts | 281° |
| 2026-05-06 00:29 | 12.22722 | -68.68897 | 7403 ft | 292 kts | 281° |
| 2026-05-06 00:29 | 12.23167 | -68.70930 | 7214 ft | 290 kts | 281° |
| 2026-05-06 00:29 | 12.23606 | -68.72940 | 7024 ft | 288 kts | 281° |
| 2026-05-06 00:29 | 12.24043 | -68.74941 | 6842 ft | 288 kts | 281° |
| 2026-05-06 00:30 | 12.24482 | -68.76951 | 6650 ft | 288 kts | 281° |
| 2026-05-06 00:30 | 12.24919 | -68.78949 | 6466 ft | 287 kts | 281° |
| 2026-05-06 00:30 | 12.25356 | -68.80948 | 6275 ft | 286 kts | 281° |
| 2026-05-06 00:30 | 12.25791 | -68.82930 | 6083 ft | 285 kts | 280° |
| 2026-05-06 00:31 | 12.26222 | -68.84909 | 5893 ft | 284 kts | 280° |
| 2026-05-06 00:31 | 12.26654 | -68.86881 | 5710 ft | 284 kts | 281° |
| 2026-05-06 00:31 | 12.27084 | -68.88853 | 5527 ft | 284 kts | 281° |
| 2026-05-06 00:31 | 12.27516 | -68.90829 | 5346 ft | 284 kts | 281° |
| 2026-05-06 00:32 | 12.27935 | -68.92803 | 5084 ft | 284 kts | 278° |
| 2026-05-06 00:32 | 12.28123 | -68.94842 | 4262 ft | 298 kts | 270° |
| 2026-05-06 00:32 | 12.28021 | -68.97019 | 3387 ft | 311 kts | 262° |
| 2026-05-06 00:32 | 12.27503 | -68.99251 | 2364 ft | 326 kts | 248° |
| 2026-05-06 00:33 | 12.26556 | -69.01402 | 1371 ft | 330 kts | 240° |
| 2026-05-06 00:33 | 12.25215 | -69.03068 | 1371 ft | 280 kts | 211° |
| 2026-05-06 00:33 | 12.23590 | -69.03670 | 1324 ft | 221 kts | 169° |
| 2026-05-06 00:33 | 12.22291 | -69.03200 | 1035 ft | 184 kts | 133° |
| 2026-05-06 00:34 | 12.21451 | -69.02353 | 980 ft | 153 kts | 124° |
| 2026-05-06 00:34 | 12.20938 | -69.01592 | 1263 ft | 110 kts | 110° |
| 2026-05-06 00:34 | 12.20457 | -69.00918 | 864 ft | 129 kts | 124° |
| 2026-05-06 00:34 | 12.19880 | -69.00183 | 727 ft | 126 kts | 114° |
| 2026-05-06 00:35 | 12.19586 | -68.99364 | 548 ft | 122 kts | 97° |
| 2026-05-06 00:35 | 12.19456 | -68.98485 | 357 ft | 124 kts | 100° |
| 2026-05-06 00:35 | 12.19236 | -68.97639 | 196 ft | 123 kts | 100° |
| 2026-05-06 00:35 | 12.19059 | -68.96771 | 90 ft | 124 kts | 101° |
| 2026-05-06 00:36 | 12.18886 | -68.95935 | 41 ft | 107 kts | 105° |
| 2026-05-06 00:36 | 12.18760 | -68.95354 | 40 ft | 57 kts | 102° |
| 2026-05-06 00:36 | 12.18723 | -68.95231 | 40 ft | 8 kts | 112° |
| 2026-05-06 00:36 | 12.18732 | -68.95214 | 40 ft | 2 kts | 327° |
| 2026-05-06 00:37 | 12.18750 | -68.95288 | 40 ft | 16 kts | 275° |
| 2026-05-06 00:37 | 12.18694 | -68.95401 | 42 ft | 22 kts | 201° |
| 2026-05-06 00:37 | 12.18605 | -68.95495 | 47 ft | 15 kts | 272° |
| 2026-05-06 00:37 | 12.18579 | -68.95567 | 48 ft | 9 kts | 202° |
| 2026-05-06 00:38 | 12.18537 | -68.95579 | 49 ft | 0 kts | 193° |